sensor_id;sensor_type;location;lat;lon;timestamp;pressure;altitude;pressure_sealevel;temperature;humidity
33286;BME280;19656;50.096;20.014;2023-03-15T00:00:35;97589.70;;;11.76;57.83
33286;BME280;19656;50.096;20.014;2023-03-15T00:05:55;97599.41;;;11.63;58.06
33286;BME280;19656;50.096;20.014;2023-03-15T00:10:59;97614.09;;;11.55;58.40
33286;BME280;19656;50.096;20.014;2023-03-15T00:16:03;97634.95;;;11.41;58.64
33286;BME280;19656;50.096;20.014;2023-03-15T00:21:07;97660.89;;;11.32;58.66
33286;BME280;19656;50.096;20.014;2023-03-15T00:26:11;97680.02;;;11.10;57.96
33286;BME280;19656;50.096;20.014;2023-03-15T00:36:20;97720.16;;;10.55;59.01
33286;BME280;19656;50.096;20.014;2023-03-15T00:41:27;97747.05;;;10.43;59.44
33286;BME280;19656;50.096;20.014;2023-03-15T00:46:30;97774.73;;;10.36;59.36
33286;BME280;19656;50.096;20.014;2023-03-15T00:51:34;97800.27;;;10.18;59.70
33286;BME280;19656;50.096;20.014;2023-03-15T00:56:40;97827.63;;;9.91;60.16
33286;BME280;19656;50.096;20.014;2023-03-15T01:01:43;97825.80;;;9.62;61.14
33286;BME280;19656;50.096;20.014;2023-03-15T01:06:50;97847.30;;;9.47;61.49
33286;BME280;19656;50.096;20.014;2023-03-15T01:11:57;97866.11;;;9.35;61.51
33286;BME280;19656;50.096;20.014;2023-03-15T01:17:01;97879.61;;;9.20;61.29
33286;BME280;19656;50.096;20.014;2023-03-15T01:22:04;97894.69;;;9.03;60.98
33286;BME280;19656;50.096;20.014;2023-03-15T01:27:07;97915.33;;;8.87;60.95
33286;BME280;19656;50.096;20.014;2023-03-15T01:32:11;97928.36;;;8.76;60.58
33286;BME280;19656;50.096;20.014;2023-03-15T01:37:15;97941.30;;;8.61;60.47
33286;BME280;19656;50.096;20.014;2023-03-15T01:42:20;97966.08;;;8.30;59.39
33286;BME280;19656;50.096;20.014;2023-03-15T01:47:24;97986.34;;;7.97;59.00
33286;BME280;19656;50.096;20.014;2023-03-15T01:52:33;98003.55;;;7.78;57.95
33286;BME280;19656;50.096;20.014;2023-03-15T01:57:52;98014.75;;;7.53;56.70
33286;BME280;19656;50.096;20.014;2023-03-15T02:03:11;98024.23;;;7.35;56.61
33286;BME280;19656;50.096;20.014;2023-03-15T02:08:24;98028.59;;;7.19;56.39
33286;BME280;19656;50.096;20.014;2023-03-15T02:13:32;98027.55;;;7.11;56.36
33286;BME280;19656;50.096;20.014;2023-03-15T02:18:40;98045.45;;;7.01;56.23
33286;BME280;19656;50.096;20.014;2023-03-15T02:23:47;98068.09;;;6.92;56.41
33286;BME280;19656;50.096;20.014;2023-03-15T02:28:53;98073.39;;;6.89;56.30
33286;BME280;19656;50.096;20.014;2023-03-15T02:33:58;98084.86;;;6.83;56.14
33286;BME280;19656;50.096;20.014;2023-03-15T02:39:15;98094.09;;;6.79;56.34
33286;BME280;19656;50.096;20.014;2023-03-15T02:44:26;98101.81;;;6.74;56.65
33286;BME280;19656;50.096;20.014;2023-03-15T02:49:36;98093.84;;;6.63;57.20
33286;BME280;19656;50.096;20.014;2023-03-15T02:54:41;98091.70;;;6.58;57.51
33286;BME280;19656;50.096;20.014;2023-03-15T02:59:45;98100.87;;;6.52;57.82
33286;BME280;19656;50.096;20.014;2023-03-15T03:04:49;98116.88;;;6.47;57.61
33286;BME280;19656;50.096;20.014;2023-03-15T03:09:59;98127.52;;;6.42;57.78
33286;BME280;19656;50.096;20.014;2023-03-15T03:15:06;98139.75;;;6.50;57.62
33286;BME280;19656;50.096;20.014;2023-03-15T03:20:11;98165.13;;;6.47;57.77
33286;BME280;19656;50.096;20.014;2023-03-15T03:25:19;98173.90;;;6.48;58.20
33286;BME280;19656;50.096;20.014;2023-03-15T03:30:24;98175.65;;;6.48;58.26
33286;BME280;19656;50.096;20.014;2023-03-15T03:35:27;98176.17;;;6.42;58.18
33286;BME280;19656;50.096;20.014;2023-03-15T03:40:31;98174.05;;;6.39;58.04
33286;BME280;19656;50.096;20.014;2023-03-15T03:45:35;98177.42;;;6.36;58.23
33286;BME280;19656;50.096;20.014;2023-03-15T03:50:40;98189.39;;;6.39;58.31
33286;BME280;19656;50.096;20.014;2023-03-15T03:55:43;98188.59;;;6.40;58.46
33286;BME280;19656;50.096;20.014;2023-03-15T04:00:52;98196.62;;;6.45;58.54
33286;BME280;19656;50.096;20.014;2023-03-15T04:05:59;98200.05;;;6.50;58.24
33286;BME280;19656;50.096;20.014;2023-03-15T04:11:03;98209.86;;;6.38;58.22
33286;BME280;19656;50.096;20.014;2023-03-15T04:16:10;98221.73;;;6.31;58.09
33286;BME280;19656;50.096;20.014;2023-03-15T04:21:29;98227.48;;;6.32;57.79
33286;BME280;19656;50.096;20.014;2023-03-15T04:26:48;98231.69;;;6.26;57.57
33286;BME280;19656;50.096;20.014;2023-03-15T04:32:01;98234.09;;;6.30;57.27
33286;BME280;19656;50.096;20.014;2023-03-15T04:37:21;98241.57;;;6.35;57.13
33286;BME280;19656;50.096;20.014;2023-03-15T04:42:54;98244.29;;;6.34;56.89
33286;BME280;19656;50.096;20.014;2023-03-15T04:48:16;98248.91;;;6.24;56.81
33286;BME280;19656;50.096;20.014;2023-03-15T04:53:42;98262.63;;;6.24;56.66
33286;BME280;19656;50.096;20.014;2023-03-15T04:59:11;98269.71;;;6.27;56.40
33286;BME280;19656;50.096;20.014;2023-03-15T05:04:30;98278.56;;;6.29;56.03
33286;BME280;19656;50.096;20.014;2023-03-15T05:09:57;98282.58;;;6.24;55.91
33286;BME280;19656;50.096;20.014;2023-03-15T05:15:22;98289.11;;;6.17;56.02
33286;BME280;19656;50.096;20.014;2023-03-15T05:20:49;98291.52;;;6.18;55.90
33286;BME280;19656;50.096;20.014;2023-03-15T05:26:21;98299.30;;;6.17;55.79
33286;BME280;19656;50.096;20.014;2023-03-15T05:31:44;98306.30;;;6.12;55.22
33286;BME280;19656;50.096;20.014;2023-03-15T05:37:05;98320.67;;;6.16;55.39
33286;BME280;19656;50.096;20.014;2023-03-15T05:42:36;98325.29;;;6.25;55.04
33286;BME280;19656;50.096;20.014;2023-03-15T05:47:55;98339.58;;;6.25;55.25
33286;BME280;19656;50.096;20.014;2023-03-15T05:53:09;98354.83;;;6.29;54.56
33286;BME280;19656;50.096;20.014;2023-03-15T05:58:20;98356.68;;;6.43;53.98
33286;BME280;19656;50.096;20.014;2023-03-15T06:03:40;98367.79;;;6.52;53.50
33286;BME280;19656;50.096;20.014;2023-03-15T06:08:49;98386.37;;;6.42;54.77
33286;BME280;19656;50.096;20.014;2023-03-15T06:13:53;98392.07;;;6.41;53.60
33286;BME280;19656;50.096;20.014;2023-03-15T06:19:12;98395.11;;;6.40;53.42
33286;BME280;19656;50.096;20.014;2023-03-15T06:24:16;98403.89;;;6.47;53.01
33286;BME280;19656;50.096;20.014;2023-03-15T06:29:21;98419.41;;;6.43;52.86
33286;BME280;19656;50.096;20.014;2023-03-15T06:34:24;98428.65;;;6.45;52.59
33286;BME280;19656;50.096;20.014;2023-03-15T06:39:28;98439.98;;;6.44;52.32
33286;BME280;19656;50.096;20.014;2023-03-15T06:44:33;98446.01;;;6.44;52.50
33286;BME280;19656;50.096;20.014;2023-03-15T06:49:42;98446.10;;;6.45;52.55
33286;BME280;19656;50.096;20.014;2023-03-15T06:54:46;98458.48;;;6.44;52.78
33286;BME280;19656;50.096;20.014;2023-03-15T06:59:50;98462.81;;;6.49;52.52
33286;BME280;19656;50.096;20.014;2023-03-15T07:04:56;98469.77;;;6.37;53.77
33286;BME280;19656;50.096;20.014;2023-03-15T07:10:01;98474.29;;;6.42;53.12
33286;BME280;19656;50.096;20.014;2023-03-15T07:15:05;98474.83;;;6.45;52.60
33286;BME280;19656;50.096;20.014;2023-03-15T07:20:09;98471.88;;;6.44;52.57
33286;BME280;19656;50.096;20.014;2023-03-15T07:25:13;98478.33;;;6.42;52.53
33286;BME280;19656;50.096;20.014;2023-03-15T07:30:18;98479.80;;;6.51;52.47
33286;BME280;19656;50.096;20.014;2023-03-15T07:35:22;98488.15;;;6.53;52.03
33286;BME280;19656;50.096;20.014;2023-03-15T07:40:25;98495.55;;;6.62;51.92
33286;BME280;19656;50.096;20.014;2023-03-15T07:45:29;98494.10;;;6.66;52.03
33286;BME280;19656;50.096;20.014;2023-03-15T07:50:33;98499.83;;;6.77;52.07
33286;BME280;19656;50.096;20.014;2023-03-15T07:55:37;98500.55;;;6.83;51.56
33286;BME280;19656;50.096;20.014;2023-03-15T08:00:40;98506.70;;;6.90;51.24
33286;BME280;19656;50.096;20.014;2023-03-15T08:05:44;98518.03;;;7.02;50.60
33286;BME280;19656;50.096;20.014;2023-03-15T08:10:47;98525.42;;;7.08;49.99
33286;BME280;19656;50.096;20.014;2023-03-15T08:15:57;98536.89;;;7.02;49.74
33286;BME280;19656;50.096;20.014;2023-03-15T08:21:00;98539.45;;;7.01;49.97
33286;BME280;19656;50.096;20.014;2023-03-15T08:26:05;98547.94;;;7.07;49.92
33286;BME280;19656;50.096;20.014;2023-03-15T08:31:08;98549.05;;;7.09;49.61
33286;BME280;19656;50.096;20.014;2023-03-15T08:36:12;98544.37;;;7.17;49.21
33286;BME280;19656;50.096;20.014;2023-03-15T08:41:16;98551.13;;;7.25;49.13
33286;BME280;19656;50.096;20.014;2023-03-15T08:46:20;98541.25;;;7.16;49.09
33286;BME280;19656;50.096;20.014;2023-03-15T08:51:24;98542.34;;;7.02;49.27
33286;BME280;19656;50.096;20.014;2023-03-15T08:56:29;98545.02;;;7.08;49.31
33286;BME280;19656;50.096;20.014;2023-03-15T09:01:34;98556.08;;;7.19;48.37
33286;BME280;19656;50.096;20.014;2023-03-15T09:06:38;98567.59;;;7.21;47.99
33286;BME280;19656;50.096;20.014;2023-03-15T09:11:43;98571.75;;;7.19;47.70
33286;BME280;19656;50.096;20.014;2023-03-15T09:16:47;98578.22;;;7.20;47.47
33286;BME280;19656;50.096;20.014;2023-03-15T09:21:51;98587.05;;;7.20;46.70
33286;BME280;19656;50.096;20.014;2023-03-15T09:26:54;98595.59;;;7.19;46.65
33286;BME280;19656;50.096;20.014;2023-03-15T09:31:58;98595.64;;;7.25;46.93
33286;BME280;19656;50.096;20.014;2023-03-15T09:37:04;98596.17;;;7.24;46.53
33286;BME280;19656;50.096;20.014;2023-03-15T09:42:41;98599.80;;;7.19;46.23
33286;BME280;19656;50.096;20.014;2023-03-15T09:48:03;98593.96;;;7.26;46.27
33286;BME280;19656;50.096;20.014;2023-03-15T09:53:23;98601.81;;;7.25;46.26
33286;BME280;19656;50.096;20.014;2023-03-15T09:58:31;98607.38;;;7.29;45.69
33286;BME280;19656;50.096;20.014;2023-03-15T10:03:43;98609.73;;;7.31;45.45
33286;BME280;19656;50.096;20.014;2023-03-15T10:08:54;98614.05;;;7.36;45.23
33286;BME280;19656;50.096;20.014;2023-03-15T10:14:41;98619.38;;;7.35;44.71
33286;BME280;19656;50.096;20.014;2023-03-15T10:19:52;98619.52;;;7.36;44.64
33286;BME280;19656;50.096;20.014;2023-03-15T10:25:25;98627.52;;;7.29;44.25
33286;BME280;19656;50.096;20.014;2023-03-15T10:30:31;98630.35;;;7.25;44.41
33286;BME280;19656;50.096;20.014;2023-03-15T10:35:36;98639.29;;;7.23;44.94
33286;BME280;19656;50.096;20.014;2023-03-15T10:40:52;98646.77;;;7.31;44.72
33286;BME280;19656;50.096;20.014;2023-03-15T10:46:09;98649.23;;;7.38;44.58
33286;BME280;19656;50.096;20.014;2023-03-15T10:51:22;98648.44;;;7.36;44.58
33286;BME280;19656;50.096;20.014;2023-03-15T10:56:30;98650.16;;;7.34;44.04
33286;BME280;19656;50.096;20.014;2023-03-15T11:01:36;98650.70;;;7.37;44.10
33286;BME280;19656;50.096;20.014;2023-03-15T11:06:44;98652.94;;;7.35;43.92
33286;BME280;19656;50.096;20.014;2023-03-15T11:11:52;98654.59;;;7.43;43.66
33286;BME280;19656;50.096;20.014;2023-03-15T11:16:58;98656.95;;;7.64;43.00
33286;BME280;19656;50.096;20.014;2023-03-15T11:22:02;98651.44;;;7.71;42.77
33286;BME280;19656;50.096;20.014;2023-03-15T11:27:12;98647.69;;;7.81;41.96
33286;BME280;19656;50.096;20.014;2023-03-15T11:32:22;98646.05;;;7.85;42.65
33286;BME280;19656;50.096;20.014;2023-03-15T11:37:46;98638.36;;;7.90;41.93
33286;BME280;19656;50.096;20.014;2023-03-15T11:43:05;98645.28;;;7.83;41.74
33286;BME280;19656;50.096;20.014;2023-03-15T11:48:15;98649.32;;;7.90;41.75
33286;BME280;19656;50.096;20.014;2023-03-15T11:53:24;98660.98;;;7.93;41.30
33286;BME280;19656;50.096;20.014;2023-03-15T11:58:34;98662.13;;;8.01;41.43
33286;BME280;19656;50.096;20.014;2023-03-15T12:03:47;98661.33;;;8.02;40.86
33286;BME280;19656;50.096;20.014;2023-03-15T12:08:53;98653.39;;;8.08;41.38
33286;BME280;19656;50.096;20.014;2023-03-15T12:19:09;98656.55;;;8.29;41.20
33286;BME280;19656;50.096;20.014;2023-03-15T12:24:25;98655.92;;;8.38;40.48
33286;BME280;19656;50.096;20.014;2023-03-15T12:29:31;98652.59;;;8.43;41.04
33286;BME280;19656;50.096;20.014;2023-03-15T12:34:57;98649.23;;;8.58;41.18
33286;BME280;19656;50.096;20.014;2023-03-15T12:55:51;98661.05;;;8.87;38.32
33286;BME280;19656;50.096;20.014;2023-03-15T13:01:11;98664.61;;;8.87;38.55
33286;BME280;19656;50.096;20.014;2023-03-15T13:17:47;98669.93;;;8.60;38.69
33286;BME280;19656;50.096;20.014;2023-03-15T13:23:21;98668.70;;;8.64;38.96
33286;BME280;19656;50.096;20.014;2023-03-15T13:28:37;98667.64;;;8.69;38.95
33286;BME280;19656;50.096;20.014;2023-03-15T13:33:49;98667.65;;;8.75;38.64
33286;BME280;19656;50.096;20.014;2023-03-15T13:38:55;98673.48;;;8.87;38.38
33286;BME280;19656;50.096;20.014;2023-03-15T13:44:01;98684.79;;;8.87;38.01
33286;BME280;19656;50.096;20.014;2023-03-15T13:49:10;98694.98;;;8.80;38.60
33286;BME280;19656;50.096;20.014;2023-03-15T13:59:28;98706.35;;;8.79;38.26
33286;BME280;19656;50.096;20.014;2023-03-15T14:04:35;98714.88;;;8.84;37.94
33286;BME280;19656;50.096;20.014;2023-03-15T14:09:40;98720.21;;;8.83;38.24
33286;BME280;19656;50.096;20.014;2023-03-15T14:14:49;98724.02;;;8.90;38.24
33286;BME280;19656;50.096;20.014;2023-03-15T14:19:56;98730.97;;;8.90;38.76
33286;BME280;19656;50.096;20.014;2023-03-15T14:25:20;98734.23;;;8.80;38.35
33286;BME280;19656;50.096;20.014;2023-03-15T14:30:24;98736.55;;;8.68;38.66
33286;BME280;19656;50.096;20.014;2023-03-15T14:35:30;98741.54;;;8.64;38.85
33286;BME280;19656;50.096;20.014;2023-03-15T14:40:36;98745.53;;;8.53;38.42
33286;BME280;19656;50.096;20.014;2023-03-15T14:45:42;98742.66;;;8.41;37.72
33286;BME280;19656;50.096;20.014;2023-03-15T14:50:50;98742.10;;;8.29;38.18
33286;BME280;19656;50.096;20.014;2023-03-15T14:55:54;98748.56;;;8.27;39.15
33286;BME280;19656;50.096;20.014;2023-03-15T15:00:58;98753.88;;;8.30;38.91
33286;BME280;19656;50.096;20.014;2023-03-15T15:06:02;98762.41;;;8.26;38.86
33286;BME280;19656;50.096;20.014;2023-03-15T15:17:18;98775.61;;;8.15;38.67
33286;BME280;19656;50.096;20.014;2023-03-15T15:22:22;98780.27;;;8.08;39.13
33286;BME280;19656;50.096;20.014;2023-03-15T15:27:25;98787.18;;;8.04;39.80
33286;BME280;19656;50.096;20.014;2023-03-15T15:32:29;98788.98;;;8.10;39.69
33286;BME280;19656;50.096;20.014;2023-03-15T15:37:36;98794.31;;;8.09;39.23
33286;BME280;19656;50.096;20.014;2023-03-15T15:42:39;98788.16;;;8.02;39.06
33286;BME280;19656;50.096;20.014;2023-03-15T15:47:43;98790.55;;;8.00;39.38
33286;BME280;19656;50.096;20.014;2023-03-15T15:52:50;98795.57;;;8.02;39.39
33286;BME280;19656;50.096;20.014;2023-03-15T15:57:54;98801.95;;;8.02;39.91
33286;BME280;19656;50.096;20.014;2023-03-15T16:02:58;98805.72;;;7.82;39.99
33286;BME280;19656;50.096;20.014;2023-03-15T16:08:02;98812.44;;;7.69;40.29
33286;BME280;19656;50.096;20.014;2023-03-15T16:13:09;98815.10;;;7.61;40.22
33286;BME280;19656;50.096;20.014;2023-03-15T16:18:13;98822.08;;;7.60;40.65
33286;BME280;19656;50.096;20.014;2023-03-15T16:23:20;98826.70;;;7.66;40.78
33286;BME280;19656;50.096;20.014;2023-03-15T16:28:25;98832.67;;;7.60;40.76
33286;BME280;19656;50.096;20.014;2023-03-15T16:33:28;98837.73;;;7.54;41.02
33286;BME280;19656;50.096;20.014;2023-03-15T16:38:32;98839.10;;;7.52;41.06
33286;BME280;19656;50.096;20.014;2023-03-15T16:43:35;98847.40;;;7.55;41.33
33286;BME280;19656;50.096;20.014;2023-03-15T16:55:04;98859.19;;;7.53;41.49
33286;BME280;19656;50.096;20.014;2023-03-15T17:00:11;98867.77;;;7.51;41.47
33286;BME280;19656;50.096;20.014;2023-03-15T17:05:19;98877.39;;;7.52;41.61
33286;BME280;19656;50.096;20.014;2023-03-15T17:10:26;98888.37;;;7.48;41.65
33286;BME280;19656;50.096;20.014;2023-03-15T17:15:31;98901.77;;;7.45;41.77
33286;BME280;19656;50.096;20.014;2023-03-15T17:20:34;98907.01;;;7.43;41.92
33286;BME280;19656;50.096;20.014;2023-03-15T17:25:37;98909.70;;;7.35;41.96
33286;BME280;19656;50.096;20.014;2023-03-15T17:30:41;98910.77;;;7.24;42.03
33286;BME280;19656;50.096;20.014;2023-03-15T17:35:49;98910.81;;;7.16;42.49
33286;BME280;19656;50.096;20.014;2023-03-15T17:40:56;98922.76;;;7.10;42.85
33286;BME280;19656;50.096;20.014;2023-03-15T17:45:59;98932.04;;;7.08;43.11
33286;BME280;19656;50.096;20.014;2023-03-15T17:51:03;98935.14;;;7.06;43.08
33286;BME280;19656;50.096;20.014;2023-03-15T17:56:07;98939.33;;;7.04;43.03
33286;BME280;19656;50.096;20.014;2023-03-15T18:01:17;98947.23;;;7.01;43.18
33286;BME280;19656;50.096;20.014;2023-03-15T18:06:25;98944.56;;;6.98;43.19
33286;BME280;19656;50.096;20.014;2023-03-15T18:11:33;98945.68;;;7.03;43.68
33286;BME280;19656;50.096;20.014;2023-03-15T18:16:42;98943.46;;;7.02;43.04
33286;BME280;19656;50.096;20.014;2023-03-15T18:21:50;98938.92;;;6.97;42.93
33286;BME280;19656;50.096;20.014;2023-03-15T18:26:54;98936.42;;;6.94;44.08
33286;BME280;19656;50.096;20.014;2023-03-15T18:31:57;98937.46;;;6.99;43.76
33286;BME280;19656;50.096;20.014;2023-03-15T18:37:01;98934.26;;;6.92;43.70
33286;BME280;19656;50.096;20.014;2023-03-15T18:42:04;98934.29;;;6.84;44.05
33286;BME280;19656;50.096;20.014;2023-03-15T18:47:08;98936.54;;;6.77;43.81
33286;BME280;19656;50.096;20.014;2023-03-15T18:52:13;98944.35;;;6.76;43.79
33286;BME280;19656;50.096;20.014;2023-03-15T18:57:17;98942.81;;;6.75;44.22
33286;BME280;19656;50.096;20.014;2023-03-15T19:02:22;98946.67;;;6.87;44.88
33286;BME280;19656;50.096;20.014;2023-03-15T19:07:26;98952.89;;;7.00;44.11
33286;BME280;19656;50.096;20.014;2023-03-15T19:12:30;98957.63;;;6.97;43.78
33286;BME280;19656;50.096;20.014;2023-03-15T19:17:33;98960.08;;;6.94;43.91
33286;BME280;19656;50.096;20.014;2023-03-15T19:22:37;98965.64;;;6.88;43.91
33286;BME280;19656;50.096;20.014;2023-03-15T19:27:42;98967.08;;;6.84;43.90
33286;BME280;19656;50.096;20.014;2023-03-15T19:32:45;98970.58;;;6.81;44.03
33286;BME280;19656;50.096;20.014;2023-03-15T19:37:50;98974.52;;;6.83;44.17
33286;BME280;19656;50.096;20.014;2023-03-15T19:42:54;98976.23;;;6.77;44.35
33286;BME280;19656;50.096;20.014;2023-03-15T19:47:57;98978.29;;;6.82;45.58
33286;BME280;19656;50.096;20.014;2023-03-15T19:53:00;98981.94;;;6.90;44.88
33286;BME280;19656;50.096;20.014;2023-03-15T19:58:04;98990.03;;;6.83;44.73
33286;BME280;19656;50.096;20.014;2023-03-15T20:03:08;98992.45;;;6.77;44.94
33286;BME280;19656;50.096;20.014;2023-03-15T20:08:11;98995.33;;;6.68;45.03
33286;BME280;19656;50.096;20.014;2023-03-15T20:13:15;99001.08;;;6.62;45.30
33286;BME280;19656;50.096;20.014;2023-03-15T20:18:18;99001.91;;;6.60;45.45
33286;BME280;19656;50.096;20.014;2023-03-15T20:23:22;98998.65;;;6.54;45.57
33286;BME280;19656;50.096;20.014;2023-03-15T20:28:25;99005.36;;;6.46;45.89
33286;BME280;19656;50.096;20.014;2023-03-15T20:33:28;99017.92;;;6.41;46.26
33286;BME280;19656;50.096;20.014;2023-03-15T20:38:33;99021.92;;;6.38;46.20
33286;BME280;19656;50.096;20.014;2023-03-15T20:43:39;99019.77;;;6.35;46.45
33286;BME280;19656;50.096;20.014;2023-03-15T20:48:42;99016.51;;;6.25;46.61
33286;BME280;19656;50.096;20.014;2023-03-15T20:53:45;99027.55;;;6.19;46.78
33286;BME280;19656;50.096;20.014;2023-03-15T20:58:50;99027.31;;;6.12;47.11
33286;BME280;19656;50.096;20.014;2023-03-15T21:03:53;99027.06;;;6.10;47.29
33286;BME280;19656;50.096;20.014;2023-03-15T21:08:58;99037.90;;;6.04;47.72
33286;BME280;19656;50.096;20.014;2023-03-15T21:14:02;99040.79;;;5.98;47.96
33286;BME280;19656;50.096;20.014;2023-03-15T21:19:05;99050.73;;;5.97;47.97
33286;BME280;19656;50.096;20.014;2023-03-15T21:24:10;99054.17;;;5.94;47.94
33286;BME280;19656;50.096;20.014;2023-03-15T21:29:14;99055.18;;;5.90;48.13
33286;BME280;19656;50.096;20.014;2023-03-15T21:34:17;99063.80;;;5.82;48.61
33286;BME280;19656;50.096;20.014;2023-03-15T21:39:21;99067.91;;;5.76;48.94
33286;BME280;19656;50.096;20.014;2023-03-15T21:44:24;99069.56;;;5.75;49.02
33286;BME280;19656;50.096;20.014;2023-03-15T21:49:27;99068.05;;;5.73;49.07
33286;BME280;19656;50.096;20.014;2023-03-15T21:54:31;99070.89;;;5.68;49.56
33286;BME280;19656;50.096;20.014;2023-03-15T21:59:34;99073.58;;;5.63;49.75
33286;BME280;19656;50.096;20.014;2023-03-15T22:04:37;99075.94;;;5.61;49.69
33286;BME280;19656;50.096;20.014;2023-03-15T22:09:41;99081.41;;;5.61;49.90
33286;BME280;19656;50.096;20.014;2023-03-15T22:14:45;99091.44;;;5.61;49.79
33286;BME280;19656;50.096;20.014;2023-03-15T22:19:58;99101.45;;;5.61;49.73
33286;BME280;19656;50.096;20.014;2023-03-15T22:25:02;99102.99;;;5.62;49.66
33286;BME280;19656;50.096;20.014;2023-03-15T22:30:06;99102.86;;;5.65;49.62
33286;BME280;19656;50.096;20.014;2023-03-15T22:35:12;99107.09;;;5.65;49.68
33286;BME280;19656;50.096;20.014;2023-03-15T22:40:15;99108.92;;;5.60;49.82
33286;BME280;19656;50.096;20.014;2023-03-15T22:45:19;99113.35;;;5.58;49.90
33286;BME280;19656;50.096;20.014;2023-03-15T22:50:23;99119.35;;;5.58;50.04
33286;BME280;19656;50.096;20.014;2023-03-15T22:55:26;99121.86;;;5.57;50.14
33286;BME280;19656;50.096;20.014;2023-03-15T23:00:29;99127.62;;;5.58;50.17
33286;BME280;19656;50.096;20.014;2023-03-15T23:05:34;99134.14;;;5.58;50.42
33286;BME280;19656;50.096;20.014;2023-03-15T23:10:40;99137.54;;;5.61;50.49
33286;BME280;19656;50.096;20.014;2023-03-15T23:15:45;99140.66;;;5.58;50.46
33286;BME280;19656;50.096;20.014;2023-03-15T23:20:49;99146.02;;;5.56;50.10
33286;BME280;19656;50.096;20.014;2023-03-15T23:25:53;99156.58;;;5.60;49.79
33286;BME280;19656;50.096;20.014;2023-03-15T23:31:03;99166.41;;;5.57;49.83
33286;BME280;19656;50.096;20.014;2023-03-15T23:36:07;99166.70;;;5.49;50.04
33286;BME280;19656;50.096;20.014;2023-03-15T23:41:10;99172.84;;;5.50;50.19
33286;BME280;19656;50.096;20.014;2023-03-15T23:46:14;99178.17;;;5.49;50.21
33286;BME280;19656;50.096;20.014;2023-03-15T23:51:18;99175.06;;;5.51;50.19
33286;BME280;19656;50.096;20.014;2023-03-15T23:56:21;99177.09;;;5.44;50.36
